Saturday, August 18, 2018, 2:50 AM GMT
Back to Local

CYOY, Valcartier Airport

Location: , , Canada Lat: 46.9
Local Time: 2:50 AM GMT ( 2:50 GMT) Lon: -71.5
Time Zone: GMT Elev: 551 ft

Show me the last for .
Show Coded

Time T Td Feel RH Dir Speed Gust Alt SLP Vis Weather Sky Remarks
2018-08-18 02:24 63 61 - 93 20° 9 - 29.88 - 1 -RA VV009 None
2018-08-18 02:23 63 61 - 93 20° 10 - 29.88 - 1 -RA VV011 None
2018-08-18 02:22 63 61 - 93 20° 10 - 29.88 - 1 -RA OVC018 None
2018-08-18 02:19 63 61 - 93 30° 10 - 29.88 - 1 -RA OVC026 None
2018-08-18 02:10 63 61 - 93 30° 8 - 29.88 - 2 -RA VV012 None
2018-08-18 02:05 63 61 - 93 20° 7 - 29.88 - 2 -RA VV008 None
2018-08-18 02:00 63 61 - 93 20° 7 - 29.89 29.89 3 -RA VV008 None
2018-08-18 01:57 63 61 - 93 30° 7 - 29.89 - 3 -RA VV008 None
2018-08-18 01:37 63 61 - 93 20° 9 17 29.89 - 1 +RA VV006 None
2018-08-18 01:11 63 61 - 93 20° 8 - 29.88 - 0 RA VV007 None
2018-08-18 01:08 63 61 - 93 20° 12 - 29.88 - 0 RA VV007 None
2018-08-18 01:06 63 61 - 93 20° 10 - 29.88 - 0 RA FEW004 FEW007 BKN020 None
2018-08-18 01:05 63 61 - 93 20° 10 - 29.88 - 1 -RA FEW005 BKN020 None
2018-08-18 01:03 63 61 - 93 30° 9 - 29.88 - 1 -RA OVC005 None
2018-08-18 01:00 63 61 - 93 30° 8 - 29.88 29.89 1 -RA OVC004 None
2018-08-18 00:59 63 61 - 93 30° 7 - 29.88 - 1 -RA OVC004 None
2018-08-18 00:57 63 61 - 93 30° 7 - 29.88 - 1 -RA OVC004 None
2018-08-18 00:46 63 61 - 93 50° 3 - 29.88 - 2 -RA BKN003 None
2018-08-18 00:44 63 61 - 93 70° 2 - 29.88 - 3 -RA OVC003 None
2018-08-18 00:42 63 61 - 93 80° 5 - 29.88 - 2 -RA OVC003 None
2018-08-18 00:39 63 61 - 93 130° 5 - 29.87 - 2 -RA BKN004 None
2018-08-18 00:21 63 61 - 93 300° 3 - 29.87 - 2 -RA BKN003 BKN015 None
2018-08-18 00:20 63 61 - 93 320° 5 - 29.87 - 2 -RA BKN004 BKN015 None
2018-08-18 00:03 63 61 - 93 40° 6 - 29.88 - 1 -RA FEW024 None
2018-08-18 00:00 63 61 - 93 40° 7 - 29.88 29.89 1 -RA SCT015 BKN024 None
2018-08-17 23:48 63 61 - 93 50° 5 - 29.88 - 1 -RA BKN015 None
2018-08-17 23:32 63 61 - 93 50° 5 - 29.89 - 1 -RA OVC017 None
2018-08-17 23:17 63 61 - 93 40° 6 - 29.89 - 2 -RA OVC024 OVC041 OVC056 None
2018-08-17 23:15 63 61 - 93 40° 5 - 29.89 - 2 -RA OVC027 OVC041 OVC056 None
2018-08-17 23:00 63 61 - 93 40° 7 - 29.90 29.90 5 -RA SCT031 BKN041 BKN053 BKN059 None
2018-08-17 22:58 63 61 - 93 40° 7 - 29.89 - 5 -RA SCT031 BKN041 BKN053 BKN059 None
2018-08-17 22:25 63 61 - 93 40° 5 - 29.90 - 3 RA BKN011 BKN053 OVC064 None
2018-08-17 22:14 63 61 - 93 30° 6 - 29.91 - 1 +RA VV011 None
2018-08-17 22:13 63 61 - 93 30° 6 - 29.92 - 1 +RA VV015 None
2018-08-17 22:02 63 61 - 93 50° 5 - 29.92 - 2 RA OVC018 OVC065 None
2018-08-17 22:00 63 61 - 93 40° 6 - 29.92 29.94 3 RA OVC018 OVC058 OVC065 None
2018-08-17 21:44 63 61 - 93 30° 8 - 29.93 - 5 RA OVC023 None
2018-08-17 21:05 63 61 - 93 20° 9 - 29.94 - 9 -RA SCT047 SCT066 None
2018-08-17 21:00 63 61 - 93 20° 9 - 29.94 29.95 9 SCT047 SCT066 None
2018-08-17 20:58 63 61 - 93 20° 9 - 29.94 - 9 SCT047 SCT066 None
2018-08-17 20:00 66 59 - 77 10° 7 - 29.95 29.97 9 -RA FEW056 FEW065 FEW092 None
2018-08-17 19:18 68 57 - 68 10° 6 - 29.96 - 9 -RA FEW065 FEW075 FEW080 FEW090 None
2018-08-17 19:00 70 57 - 64 350° 3 - 29.97 29.98 9 FEW038 FEW065 FEW075 FEW080 None
2018-08-17 18:37 70 57 - 64 250° 3 - 29.98 - 9 FEW038 FEW080 FEW090 None
2018-08-17 18:14 72 55 76 56 270° 2 - 29.99 - 9 -RA FEW044 None
2018-08-17 18:00 72 55 76 56 230° 7 - 29.99 30.00 9 FEW054 None
2018-08-17 17:00 72 55 76 56 210° 5 - 30.01 30.02 9 FEW058 FEW092 None
2018-08-17 16:00 72 55 76 56 130° 3 - 30.02 30.03 9 CLR None
2018-08-17 15:00 70 54 - 56 170° 3 - 30.05 30.05 9 CLR None
2018-08-17 14:00 66 54 - 63 - Calm - 30.07 30.09 9 CLR None
2018-08-17 13:00 63 54 - 72 360° 3 - 30.09 30.10 9 CLR None
2018-08-17 12:00 57 50 - 76 20° 6 - 30.10 30.11 9 CLR None
2018-08-17 11:00 54 50 - 87 10° 2 - 30.10 30.11 9 CLR None
2018-08-17 10:00 48 46 - 93 360° 2 - 30.10 30.11 9 CLR None
2018-08-17 09:00 48 48 - 100 - Calm - 30.09 30.10 9 CLR None
2018-08-17 08:00 48 48 - 100 360° 2 - 30.09 30.10 9 CLR None
2018-08-17 07:00 50 50 - 100 30° 2 - 30.10 30.11 9 CLR None
2018-08-17 06:00 52 50 - 93 30° 3 - 30.11 30.12 9 CLR None
2018-08-17 05:00 54 52 - 93 20° 3 - 30.11 30.11 9 CLR None
2018-08-17 04:00 52 50 - 93 350° 2 - 30.11 30.12 9 CLR None
2018-08-17 03:00 54 52 - 93 10° 2 - 30.10 30.11 15 FEW250 6-hr Min Temp (3am): 62.6°F

Support USWX by starting your Amazon purchase here.